Time;durP1;ratioP1;P1;durP2;ratioP2;P2;SDS_P1;SDS_P2;PMS_P1;PMS_P2;Temp;Humidity;BMP_temperature;BMP_pressure;BME280_temperature;BME280_humidity;BME280_pressure;Samples;Min_cycle;Max_cycle;Signal;HPM_P1;HPM_P2
2022/08/09 00:02:32;;;;;;;;;;;;;;;;;;5020073;28;20859;-69
2022/08/09 00:05:01;;;;;;;0.38;0.38;;;;;;;;;;5015692;28;19925;-70
2022/08/09 00:07:50;;;;;;;0.50;0.30;;;;;;;;;;5027601;28;20060;-69
2022/08/09 00:10:21;;;;;;;0.47;0.30;;;;;;;;;;5019872;28;20045;-69
2022/08/09 00:12:52;;;;;;;0.30;0.20;;;;;;;;;;5015226;28;20046;-72
2022/08/09 00:15:21;;;;;;;0.40;0.40;;;;;;;;;;5018430;28;20041;-70
2022/08/09 00:18:09;;;;;;;0.40;0.22;;;;;;;;;;5021504;28;20046;-69
2022/08/09 00:20:39;;;;;;;0.28;0.20;;;;;;;;;;5021151;28;20064;-70
2022/08/09 00:23:18;;;;;;;0.40;0.28;;;;;;;;;;5023126;28;20493;-71
2022/08/09 00:26:07;;;;;;;0.38;0.32;;;;;;;;;;5014882;28;20547;-71
2022/08/09 00:28:39;;;;;;;0.38;0.38;;;;;;;;;;5023659;28;20650;-72
2022/08/09 00:31:07;;;;;;;0.22;0.22;;;;;;;;;;5017573;28;20419;-70
2022/08/09 00:33:56;;;;;;;0.50;0.50;;;;;;;;;;5021673;28;20057;-70
2022/08/09 00:36:25;;;;;;;0.30;0.30;;;;;;;;;;5016484;28;20057;-69
2022/08/09 00:38:58;;;;;;;0.30;0.28;;;;;;;;;;5022882;28;20041;-70
2022/08/09 00:41:26;;;;;;;0.30;0.30;;;;;;;;;;5020740;28;20428;-70
2022/08/09 00:44:15;;;;;;;0.90;0.65;;;;;;;;;;5021923;28;20048;-70
2022/08/09 00:46:55;;;;;;;0.30;0.30;;;;;;;;;;5027651;28;20045;-69
2022/08/09 00:49:33;;;;;;;0.25;0.20;;;;;;;;;;5025258;28;20065;-70
2022/08/09 00:52:04;;;;;;;0.30;0.25;;;;;;;;;;5020554;28;20058;-70
2022/08/09 00:54:47;;;;;;;0.82;0.55;;;;;;;;;;5021630;28;20060;-70
2022/08/09 00:57:16;;;;;;;0.10;0.10;;;;;;;;;;5026579;28;20045;-70
2022/08/09 01:00:02;;;;;;;0.20;0.20;;;;;;;;;;5019244;28;20053;-71
2022/08/09 01:02:50;;;;;;;0.32;0.30;;;;;;;;;;5019903;28;20046;-72
2022/08/09 01:05:23;;;;;;;0.28;0.28;;;;;;;;;;5023058;28;20129;-73
2022/08/09 01:08:13;;;;;;;0.22;0.10;;;;;;;;;;5023905;28;20050;-72
2022/08/09 01:10:49;;;;;;;0.40;0.40;;;;;;;;;;5016591;28;20049;-71
2022/08/09 01:13:23;;;;;;;0.25;0.25;;;;;;;;;;5018488;28;20060;-72
2022/08/09 01:15:59;;;;;;;0.30;0.30;;;;;;;;;;5019227;28;20145;-72
2022/08/09 01:18:31;;;;;;;0.47;0.40;;;;;;;;;;5014505;28;20050;-71
2022/08/09 01:21:16;;;;;;;0.10;0.10;;;;;;;;;;5022899;28;20404;-73
2022/08/09 01:23:53;;;;;;;0.13;0.13;;;;;;;;;;5016222;28;20042;-70
2022/08/09 01:26:49;;;;;;;0.47;0.20;;;;;;;;;;5016819;28;20053;-70
2022/08/09 01:29:25;;;;;;;0.40;0.40;;;;;;;;;;5019005;28;20050;-70
2022/08/09 01:31:56;;;;;;;0.38;0.38;;;;;;;;;;5012747;28;20116;-69
2022/08/09 01:34:45;;;;;;;0.40;0.28;;;;;;;;;;5013562;28;20524;-69
2022/08/09 01:37:17;;;;;;;0.40;0.30;;;;;;;;;;5021183;28;20041;-69
2022/08/09 01:40:07;;;;;;;1.10;0.28;;;;;;;;;;5016100;28;20060;-70
2022/08/09 01:42:37;;;;;;;0.55;0.45;;;;;;;;;;5021909;28;20144;-68
2022/08/09 01:45:07;;;;;;;0.30;0.30;;;;;;;;;;5016084;28;20050;-70
2022/08/09 01:47:35;;;;;;;0.55;0.35;;;;;;;;;;5021643;28;20049;-70
2022/08/09 01:50:12;;;;;;;0.32;0.32;;;;;;;;;;5022538;28;20127;-69
2022/08/09 01:52:44;;;;;;;0.60;0.60;;;;;;;;;;5016231;28;20046;-69
2022/08/09 01:55:18;;;;;;;0.30;0.30;;;;;;;;;;5018230;28;20045;-69
2022/08/09 01:57:50;;;;;;;0.30;0.30;;;;;;;;;;5013103;28;20053;-69
2022/08/09 02:00:20;;;;;;;0.40;0.40;;;;;;;;;;5018354;28;20081;-69
2022/08/09 02:03:05;;;;;;;0.90;0.50;;;;;;;;;;5021457;28;20050;-70
2022/08/09 02:05:38;;;;;;;1.27;0.30;;;;;;;;;;5010284;28;20116;-73
2022/08/09 02:08:28;;;;;;;0.30;0.30;;;;;;;;;;5021482;28;20055;-70
2022/08/09 02:11:17;;;;;;;0.20;0.20;;;;;;;;;;5012753;28;20042;-70
2022/08/09 02:13:47;;;;;;;0.40;0.40;;;;;;;;;;5018725;28;20158;-69
2022/08/09 02:16:35;;;;;;;0.80;0.75;;;;;;;;;;5015458;28;20053;-71
2022/08/09 02:19:25;;;;;;;0.32;0.32;;;;;;;;;;5023113;28;20096;-72
2022/08/09 02:22:14;;;;;;;0.40;0.40;;;;;;;;;;5024897;28;20056;-72
2022/08/09 02:24:43;;;;;;;0.20;0.20;;;;;;;;;;5016631;28;20476;-70
2022/08/09 02:27:19;;;;;;;0.30;0.30;;;;;;;;;;5016744;28;20144;-72
2022/08/09 02:30:11;;;;;;;0.88;0.47;;;;;;;;;;5011873;28;20049;-73
2022/08/09 02:32:45;;;;;;;0.60;0.20;;;;;;;;;;5020899;28;20077;-71
2022/08/09 02:35:23;;;;;;;0.52;0.52;;;;;;;;;;5023506;28;20507;-72
2022/08/09 02:38:12;;;;;;;0.38;0.30;;;;;;;;;;5025041;28;20167;-71
2022/08/09 02:40:58;;;;;;;0.30;0.30;;;;;;;;;;5010712;28;20052;-71
2022/08/09 02:43:27;;;;;;;0.20;0.20;;;;;;;;;;5014089;28;20136;-71
2022/08/09 02:45:59;;;;;;;0.32;0.25;;;;;;;;;;5018283;28;20511;-72
2022/08/09 02:48:32;;;;;;;0.55;0.28;;;;;;;;;;5017506;28;20045;-71
2022/08/09 02:51:04;;;;;;;0.20;0.20;;;;;;;;;;5026376;28;20046;-72
2022/08/09 02:53:35;;;;;;;1.13;1.02;;;;;;;;;;5027038;28;20088;-71
2022/08/09 02:56:08;;;;;;;0.52;0.52;;;;;;;;;;5023414;28;20048;-72
2022/08/09 02:58:36;;;;;;;0.30;0.30;;;;;;;;;;5014543;28;20053;-71
2022/08/09 03:01:10;;;;;;;0.43;0.40;;;;;;;;;;5022422;28;20152;-72
2022/08/09 03:03:56;;;;;;;0.32;0.30;;;;;;;;;;5015356;28;20042;-71
2022/08/09 03:06:45;;;;;;;0.20;0.20;;;;;;;;;;5020404;28;20077;-72
2022/08/09 03:09:16;;;;;;;1.15;0.50;;;;;;;;;;5021057;28;20888;-71
2022/08/09 03:11:45;;;;;;;0.43;0.43;;;;;;;;;;5025579;28;20123;-72
2022/08/09 03:14:34;;;;;;;0.55;0.55;;;;;;;;;;5026417;28;20060;-71
2022/08/09 03:17:05;;;;;;;0.98;0.75;;;;;;;;;;5023984;28;20074;-72
2022/08/09 03:19:34;;;;;;;2.95;0.55;;;;;;;;;;5022128;28;20064;-73
2022/08/09 03:22:23;;;;;;;0.77;0.32;;;;;;;;;;5021384;28;20382;-71
2022/08/09 03:24:58;;;;;;;0.52;0.40;;;;;;;;;;5015600;28;20038;-72
2022/08/09 03:27:48;;;;;;;0.52;0.50;;;;;;;;;;5015803;28;20042;-71
2022/08/09 03:30:17;;;;;;;1.25;0.65;;;;;;;;;;5029244;28;20476;-72
2022/08/09 03:33:04;;;;;;;0.60;0.60;;;;;;;;;;5025512;28;20061;-72
2022/08/09 03:35:45;;;;;;;0.50;0.38;;;;;;;;;;5021548;28;20487;-71
2022/08/09 03:38:34;;;;;;;0.65;0.65;;;;;;;;;;5021459;28;20056;-70
2022/08/09 03:41:07;;;;;;;0.40;0.40;;;;;;;;;;5016122;28;20049;-72
2022/08/09 03:43:36;;;;;;;0.70;0.47;;;;;;;;;;5022980;28;20099;-72
2022/08/09 03:46:08;;;;;;;0.43;0.43;;;;;;;;;;5020190;28;20451;-71
2022/08/09 03:48:57;;;;;;;0.52;0.35;;;;;;;;;;5013563;28;20057;-71
2022/08/09 03:51:31;;;;;;;0.73;0.63;;;;;;;;;;5019442;28;20042;-71
2022/08/09 03:54:19;;;;;;;0.43;0.43;;;;;;;;;;5031349;28;20056;-72
2022/08/09 03:56:57;;;;;;;1.40;0.40;;;;;;;;;;5021558;28;20041;-71
2022/08/09 03:59:27;;;;;;;0.55;0.30;;;;;;;;;;5013093;28;20134;-73
2022/08/09 04:02:15;;;;;;;0.80;0.55;;;;;;;;;;5021356;28;20054;-71
2022/08/09 04:04:54;;;;;;;0.50;0.50;;;;;;;;;;5019745;28;20050;-73
2022/08/09 04:07:23;;;;;;;0.60;0.60;;;;;;;;;;5014586;28;20517;-70
2022/08/09 04:10:11;;;;;;;1.17;0.65;;;;;;;;;;5024745;28;20419;-71
2022/08/09 04:12:44;;;;;;;1.13;0.93;;;;;;;;;;5022368;28;20137;-72
2022/08/09 04:15:14;;;;;;;0.75;0.40;;;;;;;;;;5017081;28;20065;-73
2022/08/09 04:18:02;;;;;;;0.45;0.45;;;;;;;;;;5011555;28;20050;-71
2022/08/09 04:20:32;;;;;;;0.98;0.80;;;;;;;;;;5021810;28;20045;-71
2022/08/09 04:23:01;;;;;;;0.82;0.60;;;;;;;;;;5017175;28;20046;-71
2022/08/09 04:25:29;;;;;;;0.63;0.50;;;;;;;;;;5026620;28;20140;-72
2022/08/09 04:28:01;;;;;;;0.90;0.60;;;;;;;;;;5019958;28;20167;-75
2022/08/09 04:30:31;;;;;;;0.32;0.32;;;;;;;;;;5026896;28;20412;-72
2022/08/09 04:33:00;;;;;;;1.08;0.52;;;;;;;;;;5017301;28;20121;-73
2022/08/09 04:35:29;;;;;;;0.43;0.43;;;;;;;;;;5023302;28;20276;-71
2022/08/09 04:38:01;;;;;;;0.30;0.30;;;;;;;;;;5012980;28;20567;-72
2022/08/09 04:43:13;;;;;;;0.50;0.30;;;;;;;;;;5027393;28;20079;-71
2022/08/09 04:45:42;;;;;;;0.30;0.30;;;;;;;;;;5027097;28;20531;-72
2022/08/09 04:48:21;;;;;;;0.32;0.32;;;;;;;;;;5025249;28;20052;-71
2022/08/09 04:50:51;;;;;;;0.90;0.52;;;;;;;;;;5029003;28;20076;-72
2022/08/09 04:53:20;;;;;;;0.40;0.40;;;;;;;;;;5020517;28;20544;-72
2022/08/09 04:55:50;;;;;;;0.63;0.40;;;;;;;;;;5023317;28;20053;-72
2022/08/09 04:58:25;;;;;;;1.17;0.65;;;;;;;;;;5026291;28;20053;-71
2022/08/09 05:00:54;;;;;;;0.43;0.40;;;;;;;;;;5016959;28;20056;-71
2022/08/09 05:03:22;;;;;;;0.80;0.45;;;;;;;;;;5023518;28;20049;-71
2022/08/09 05:06:09;;;;;;;0.40;0.40;;;;;;;;;;5017927;28;20065;-73
2022/08/09 05:08:39;;;;;;;0.60;0.40;;;;;;;;;;5021728;28;20100;-74
2022/08/09 05:11:15;;;;;;;0.32;0.32;;;;;;;;;;5010837;28;20073;-71
2022/08/09 05:13:44;;;;;;;0.75;0.50;;;;;;;;;;5017536;28;21987;-71
2022/08/09 05:16:12;;;;;;;0.25;0.20;;;;;;;;;;5025875;28;20152;-71
2022/08/09 05:18:42;;;;;;;0.98;0.75;;;;;;;;;;5025411;28;20073;-71
2022/08/09 05:21:27;;;;;;;0.30;0.30;;;;;;;;;;5016618;28;20493;-71
2022/08/09 05:23:59;;;;;;;0.55;0.40;;;;;;;;;;5019152;28;20050;-73
2022/08/09 05:26:29;;;;;;;0.28;0.25;;;;;;;;;;5008723;28;20618;-71
2022/08/09 05:29:09;;;;;;;0.47;0.40;;;;;;;;;;5019971;28;20085;-75
2022/08/09 05:31:49;;;;;;;0.40;0.40;;;;;;;;;;5010994;28;20050;-74
2022/08/09 05:34:25;;;;;;;1.45;0.50;;;;;;;;;;5018503;28;20051;-73
2022/08/09 05:37:02;;;;;;;0.47;0.47;;;;;;;;;;5010971;28;20053;-71
2022/08/09 05:39:36;;;;;;;0.20;0.20;;;;;;;;;;5012272;28;20459;-71
2022/08/09 05:42:11;;;;;;;0.60;0.40;;;;;;;;;;5015016;28;20046;-72
2022/08/09 05:44:48;;;;;;;0.50;0.40;;;;;;;;;;5014761;28;20188;-72
2022/08/09 05:47:18;;;;;;;2.47;0.80;;;;;;;;;;5015280;28;20065;-72
2022/08/09 05:49:49;;;;;;;0.88;0.40;;;;;;;;;;5017193;28;20091;-72
2022/08/09 05:52:37;;;;;;;0.35;0.35;;;;;;;;;;5014599;28;20069;-72
2022/08/09 05:55:08;;;;;;;0.88;0.45;;;;;;;;;;5018994;28;20665;-71
2022/08/09 05:57:48;;;;;;;0.38;0.20;;;;;;;;;;5010075;28;20045;-73
2022/08/09 06:00:24;;;;;;;0.38;0.38;;;;;;;;;;5016349;28;20211;-73
2022/08/09 06:02:53;;;;;;;0.60;0.60;;;;;;;;;;5024605;28;20519;-72
2022/08/09 06:05:24;;;;;;;0.50;0.50;;;;;;;;;;5012766;28;20132;-72
2022/08/09 06:08:13;;;;;;;0.22;0.22;;;;;;;;;;5009548;28;20053;-71
2022/08/09 06:10:48;;;;;;;0.52;0.43;;;;;;;;;;5007086;28;20076;-71
2022/08/09 06:13:18;;;;;;;0.30;0.30;;;;;;;;;;5011603;28;20053;-72
2022/08/09 06:15:48;;;;;;;0.32;0.32;;;;;;;;;;5016818;28;20050;-72
2022/08/09 06:18:19;;;;;;;0.95;0.40;;;;;;;;;;5018415;28;20633;-72
2022/08/09 06:20:53;;;;;;;0.95;0.85;;;;;;;;;;5013836;28;20332;-71
2022/08/09 06:23:26;;;;;;;0.52;0.38;;;;;;;;;;5020160;28;20053;-72
2022/08/09 06:26:15;;;;;;;0.63;0.40;;;;;;;;;;5016953;28;20052;-72
2022/08/09 06:28:49;;;;;;;0.68;0.50;;;;;;;;;;5013972;28;20054;-72
2022/08/09 06:31:28;;;;;;;0.43;0.40;;;;;;;;;;5015365;28;20140;-72
2022/08/09 06:34:06;;;;;;;0.20;0.20;;;;;;;;;;5020348;28;20456;-71
2022/08/09 06:36:36;;;;;;;0.30;0.30;;;;;;;;;;5013398;28;20046;-71
2022/08/09 06:39:11;;;;;;;1.33;0.47;;;;;;;;;;5018457;28;20050;-72
2022/08/09 06:41:41;;;;;;;0.60;0.60;;;;;;;;;;5019971;28;20492;-74
2022/08/09 06:44:30;;;;;;;0.35;0.35;;;;;;;;;;5016232;28;20119;-72
2022/08/09 06:46:58;;;;;;;0.52;0.40;;;;;;;;;;5033355;28;20162;-72
2022/08/09 06:49:26;;;;;;;4.07;0.40;;;;;;;;;;5039558;28;20564;-73
2022/08/09 06:52:15;;;;;;;0.77;0.57;;;;;;;;;;5035081;28;20419;-73
2022/08/09 06:54:45;;;;;;;0.50;0.50;;;;;;;;;;5041815;28;20049;-72
2022/08/09 06:57:15;;;;;;;0.55;0.55;;;;;;;;;;5017264;28;20052;-73
2022/08/09 06:59:45;;;;;;;0.50;0.40;;;;;;;;;;5020531;28;20046;-74
2022/08/09 07:02:33;;;;;;;0.88;0.68;;;;;;;;;;5014909;28;20536;-72
2022/08/09 07:05:06;;;;;;;0.52;0.30;;;;;;;;;;5019550;28;20513;-72
2022/08/09 07:07:35;;;;;;;0.82;0.50;;;;;;;;;;5035609;28;20128;-74
2022/08/09 07:10:24;;;;;;;0.55;0.55;;;;;;;;;;5033221;28;20485;-74
2022/08/09 07:13:01;;;;;;;0.50;0.38;;;;;;;;;;5035241;28;20326;-73
2022/08/09 07:15:49;;;;;;;0.32;0.25;;;;;;;;;;5029324;28;20073;-73
2022/08/09 07:18:38;;;;;;;0.45;0.32;;;;;;;;;;5017247;28;20068;-73
2022/08/09 07:21:06;;;;;;;0.95;0.40;;;;;;;;;;5020135;28;20054;-72
2022/08/09 07:23:35;;;;;;;2.08;0.30;;;;;;;;;;5021680;28;20413;-72
2022/08/09 07:26:24;;;;;;;0.40;0.30;;;;;;;;;;5015679;28;20164;-72
2022/08/09 07:28:54;;;;;;;2.47;0.50;;;;;;;;;;5022445;28;20046;-72
2022/08/09 07:31:37;;;;;;;0.22;0.20;;;;;;;;;;5022212;28;20049;-73
2022/08/09 07:34:15;;;;;;;0.20;0.20;;;;;;;;;;5016434;28;20269;-72
2022/08/09 07:36:48;;;;;;;0.40;0.40;;;;;;;;;;5033949;28;20041;-73
2022/08/09 07:39:17;;;;;;;0.20;0.20;;;;;;;;;;5037414;28;20474;-72
2022/08/09 07:41:54;;;;;;;0.63;0.50;;;;;;;;;;5037080;28;20048;-72
2022/08/09 07:44:25;;;;;;;0.63;0.55;;;;;;;;;;5040394;28;20376;-72
2022/08/09 07:47:13;;;;;;;0.35;0.35;;;;;;;;;;5031848;28;20060;-73
2022/08/09 07:49:43;;;;;;;0.30;0.25;;;;;;;;;;5043327;28;20073;-71
2022/08/09 07:52:32;;;;;;;0.22;0.22;;;;;;;;;;5034828;28;20063;-71
2022/08/09 07:55:03;;;;;;;0.85;0.73;;;;;;;;;;5040831;28;20049;-74
2022/08/09 07:57:38;;;;;;;0.35;0.35;;;;;;;;;;5014683;28;20057;-72
2022/08/09 08:00:16;;;;;;;0.47;0.47;;;;;;;;;;5024958;28;20049;-71
2022/08/09 08:03:03;;;;;;;0.20;0.20;;;;;;;;;;5022068;28;20050;-71
2022/08/09 08:05:36;;;;;;;0.47;0.32;;;;;;;;;;5017224;28;20458;-71
2022/08/09 08:08:23;;;;;;;0.30;0.30;;;;;;;;;;5018741;28;20508;-71
2022/08/09 08:11:11;;;;;;;0.57;0.52;;;;;;;;;;5015134;28;20081;-73
2022/08/09 08:13:59;;;;;;;0.40;0.40;;;;;;;;;;5017927;28;20570;-72
2022/08/09 08:16:29;;;;;;;1.15;0.43;;;;;;;;;;5027086;28;20468;-73
2022/08/09 08:18:59;;;;;;;0.88;0.70;;;;;;;;;;5044642;28;20049;-72
2022/08/09 08:21:31;;;;;;;0.47;0.47;;;;;;;;;;5036468;28;20049;-72
2022/08/09 08:24:00;;;;;;;0.50;0.40;;;;;;;;;;5042541;28;20491;-72
2022/08/09 08:26:43;;;;;;;1.35;1.10;;;;;;;;;;5040647;28;20045;-72
2022/08/09 08:29:23;;;;;;;0.30;0.30;;;;;;;;;;5034649;28;20045;-73
2022/08/09 08:31:57;;;;;;;0.95;0.50;;;;;;;;;;5031161;28;20135;-72
2022/08/09 08:34:32;;;;;;;0.30;0.30;;;;;;;;;;5036774;28;20044;-73
2022/08/09 08:37:03;;;;;;;0.63;0.50;;;;;;;;;;5045458;28;20053;-73
2022/08/09 08:39:32;;;;;;;0.30;0.30;;;;;;;;;;5031561;28;20052;-73
2022/08/09 08:42:11;;;;;;;0.50;0.50;;;;;;;;;;5032935;28;20056;-73
2022/08/09 08:44:41;;;;;;;1.20;0.77;;;;;;;;;;5030960;28;20052;-73
2022/08/09 08:47:14;;;;;;;0.70;0.60;;;;;;;;;;5021108;28;20498;-74
2022/08/09 08:49:43;;;;;;;0.68;0.40;;;;;;;;;;5018017;28;20501;-73
2022/08/09 08:52:16;;;;;;;1.02;0.50;;;;;;;;;;5016267;28;20062;-74
2022/08/09 08:55:07;;;;;;;0.50;0.50;;;;;;;;;;5019675;28;20045;-75
2022/08/09 08:57:35;;;;;;;0.60;0.45;;;;;;;;;;5028043;28;20563;-73
2022/08/09 09:00:06;;;;;;;2.78;0.65;;;;;;;;;;5032309;28;20365;-72
2022/08/09 09:02:50;;;;;;;0.38;0.38;;;;;;;;;;5033521;28;20060;-71
2022/08/09 09:05:22;;;;;;;0.57;0.57;;;;;;;;;;5033765;28;20057;-72
2022/08/09 09:08:11;;;;;;;0.73;0.70;;;;;;;;;;5025840;28;20080;-72
2022/08/09 09:10:58;;;;;;;0.65;0.65;;;;;;;;;;5020389;28;20057;-74
2022/08/09 09:13:27;;;;;;;0.98;0.90;;;;;;;;;;5027051;28;20053;-71
2022/08/09 09:16:15;;;;;;;0.38;0.38;;;;;;;;;;5026091;28;20069;-73
2022/08/09 09:18:45;;;;;;;0.35;0.35;;;;;;;;;;5016847;28;20052;-73
2022/08/09 09:21:30;;;;;;;0.63;0.60;;;;;;;;;;5019528;28;20563;-72
2022/08/09 09:24:10;;;;;;;0.90;0.52;;;;;;;;;;5007523;28;20042;-75
2022/08/09 09:26:54;;;;;;;0.35;0.32;;;;;;;;;;5011176;28;20053;-73
2022/08/09 09:29:28;;;;;;;0.33;0.30;;;;;;;;;;5016834;28;20054;-75
2022/08/09 09:32:21;;;;;;;0.63;0.50;;;;;;;;;;5014973;28;20072;-74
2022/08/09 09:35:08;;;;;;;0.50;0.50;;;;;;;;;;5012554;28;20173;-75
2022/08/09 09:37:37;;;;;;;0.65;0.60;;;;;;;;;;5010929;28;20108;-74
2022/08/09 09:40:09;;;;;;;0.40;0.40;;;;;;;;;;5010407;28;20128;-72
2022/08/09 09:42:39;;;;;;;0.32;0.32;;;;;;;;;;5011488;28;20049;-73
2022/08/09 09:45:14;;;;;;;0.77;0.70;;;;;;;;;;5014129;28;20112;-73
2022/08/09 09:47:56;;;;;;;0.40;0.30;;;;;;;;;;5007254;28;20407;-75
2022/08/09 09:50:41;;;;;;;0.50;0.50;;;;;;;;;;5009393;28;20496;-74
2022/08/09 09:53:19;;;;;;;1.05;0.60;;;;;;;;;;5010194;28;20049;-73
2022/08/09 09:55:52;;;;;;;0.70;0.40;;;;;;;;;;5013802;28;20068;-74
2022/08/09 09:58:44;;;;;;;0.43;0.30;;;;;;;;;;5007322;28;20049;-73
2022/08/09 10:01:20;;;;;;;0.50;0.45;;;;;;;;;;5017430;28;20145;-72
2022/08/09 10:04:05;;;;;;;1.08;0.70;;;;;;;;;;5017790;28;20054;-72
2022/08/09 10:06:41;;;;;;;0.57;0.50;;;;;;;;;;5009367;28;20552;-74
2022/08/09 10:09:15;;;;;;;0.73;0.65;;;;;;;;;;5017368;28;20081;-72
2022/08/09 10:11:56;;;;;;;0.70;0.50;;;;;;;;;;5020167;28;20060;-73
2022/08/09 10:14:44;;;;;;;0.90;0.63;;;;;;;;;;5019689;28;20062;-73
2022/08/09 10:17:16;;;;;;;0.60;0.60;;;;;;;;;;5013653;28;20505;-72
2022/08/09 10:20:06;;;;;;;0.70;0.50;;;;;;;;;;5008745;28;20140;-73
2022/08/09 10:22:44;;;;;;;1.58;1.08;;;;;;;;;;5007624;28;20088;-72
2022/08/09 10:25:13;;;;;;;0.95;0.50;;;;;;;;;;5012997;28;20053;-73
2022/08/09 10:27:48;;;;;;;0.77;0.43;;;;;;;;;;5015308;28;20045;-72
2022/08/09 10:30:25;;;;;;;0.93;0.50;;;;;;;;;;5014329;28;20357;-72
2022/08/09 10:33:14;;;;;;;3.53;1.65;;;;;;;;;;5015605;28;20057;-72
2022/08/09 10:36:06;;;;;;;0.50;0.50;;;;;;;;;;5013390;28;20136;-73
2022/08/09 10:38:41;;;;;;;0.80;0.70;;;;;;;;;;5007366;28;20488;-72
2022/08/09 10:41:27;;;;;;;0.77;0.55;;;;;;;;;;5011595;28;20583;-74
2022/08/09 10:43:56;;;;;;;0.40;0.40;;;;;;;;;;5010878;28;20050;-71
2022/08/09 10:46:48;;;;;;;0.75;0.60;;;;;;;;;;5011909;28;20351;-72
2022/08/09 10:49:32;;;;;;;0.70;0.60;;;;;;;;;;5017417;28;20046;-72
2022/08/09 10:52:25;;;;;;;0.82;0.70;;;;;;;;;;5011627;28;20497;-73
2022/08/09 10:55:02;;;;;;;0.77;0.77;;;;;;;;;;5014824;28;20112;-73
2022/08/09 10:57:35;;;;;;;0.43;0.40;;;;;;;;;;5018033;28;20320;-72
2022/08/09 11:00:30;;;;;;;1.83;0.47;;;;;;;;;;5018159;28;20500;-72
2022/08/09 11:02:59;;;;;;;1.17;0.38;;;;;;;;;;5016677;28;20042;-72
2022/08/09 11:06:01;;;;;;;1.27;0.40;;;;;;;;;;5013056;28;20076;-72
2022/08/09 11:08:41;;;;;;;0.45;0.45;;;;;;;;;;5012776;28;20071;-72
2022/08/09 11:11:16;;;;;;;0.90;0.60;;;;;;;;;;5006382;28;20109;-73
2022/08/09 11:13:46;;;;;;;0.63;0.60;;;;;;;;;;5011063;28;20092;-72
2022/08/09 11:16:35;;;;;;;1.63;0.60;;;;;;;;;;5007957;28;20058;-71
2022/08/09 11:19:05;;;;;;;2.33;0.90;;;;;;;;;;5016516;28;20130;-73
2022/08/09 11:21:51;;;;;;;0.55;0.50;;;;;;;;;;5011083;28;20046;-72
2022/08/09 11:24:47;;;;;;;0.85;0.57;;;;;;;;;;5011852;28;20053;-73
2022/08/09 11:27:38;;;;;;;0.70;0.60;;;;;;;;;;5014637;28;20064;-73
2022/08/09 11:30:34;;;;;;;1.75;0.75;;;;;;;;;;5017197;28;20124;-72
2022/08/09 11:33:08;;;;;;;0.40;0.40;;;;;;;;;;5019985;28;20128;-72
2022/08/09 11:35:39;;;;;;;0.80;0.70;;;;;;;;;;5021776;28;20049;-72
2022/08/09 11:38:19;;;;;;;1.35;0.60;;;;;;;;;;5017545;28;20061;-72
2022/08/09 11:40:50;;;;;;;0.73;0.57;;;;;;;;;;5015929;28;20215;-73
2022/08/09 11:43:37;;;;;;;0.47;0.47;;;;;;;;;;5019951;28;20053;-74
2022/08/09 11:46:10;;;;;;;0.40;0.40;;;;;;;;;;5021243;28;20069;-72
2022/08/09 11:48:48;;;;;;;0.90;0.63;;;;;;;;;;5011058;28;20112;-73
2022/08/09 11:51:17;;;;;;;0.60;0.60;;;;;;;;;;5017452;28;20083;-74
2022/08/09 11:54:13;;;;;;;1.23;0.70;;;;;;;;;;5015803;28;20520;-73
2022/08/09 11:56:50;;;;;;;;;;;;;;;;;;5016115;28;20061;-74
2022/08/09 11:59:25;;;;;;;3.25;0.82;;;;;;;;;;5016588;28;19971;-72
2022/08/09 12:02:02;;;;;;;1.05;0.52;;;;;;;;;;5016025;28;20044;-72
2022/08/09 12:04:53;;;;;;;0.70;0.50;;;;;;;;;;5020549;28;20524;-72
2022/08/09 12:07:28;;;;;;;1.50;1.23;;;;;;;;;;5033062;28;20060;-73
2022/08/09 12:10:10;;;;;;;0.30;0.30;;;;;;;;;;5015232;28;20073;-74
2022/08/09 12:12:59;;;;;;;0.47;0.47;;;;;;;;;;5018408;28;20505;-72
2022/08/09 12:15:48;;;;;;;0.50;0.47;;;;;;;;;;5020177;28;20154;-73
2022/08/09 12:18:21;;;;;;;0.85;0.50;;;;;;;;;;5014718;28;20125;-72
2022/08/09 12:20:57;;;;;;;0.63;0.47;;;;;;;;;;5019656;28;20096;-72
2022/08/09 12:23:28;;;;;;;0.43;0.43;;;;;;;;;;5021427;28;20045;-72
2022/08/09 12:26:16;;;;;;;1.00;0.60;;;;;;;;;;5012690;28;20038;-71
2022/08/09 12:28:54;;;;;;;1.30;0.60;;;;;;;;;;5015338;28;20437;-72
2022/08/09 12:31:43;;;;;;;0.52;0.52;;;;;;;;;;5018002;28;20060;-72
2022/08/09 12:34:35;;;;;;;0.68;0.50;;;;;;;;;;5022672;28;20054;-73
2022/08/09 12:37:05;;;;;;;1.20;0.73;;;;;;;;;;5023582;28;20077;-73
2022/08/09 12:39:59;;;;;;;1.90;0.52;;;;;;;;;;5013925;28;20137;-73
2022/08/09 12:42:29;;;;;;;0.93;0.60;;;;;;;;;;5020967;28;20048;-73
2022/08/09 12:44:58;;;;;;;0.43;0.35;;;;;;;;;;5014559;28;20242;-72
2022/08/09 12:47:28;;;;;;;0.40;0.30;;;;;;;;;;5038923;28;20048;-72
2022/08/09 12:50:17;;;;;;;0.30;0.30;;;;;;;;;;5044878;28;20053;-71
2022/08/09 12:52:51;;;;;;;0.60;0.50;;;;;;;;;;5036529;28;20140;-72
2022/08/09 12:55:39;;;;;;;2.50;0.60;;;;;;;;;;5031011;28;20049;-71
2022/08/09 12:58:28;;;;;;;1.00;0.88;;;;;;;;;;5020991;28;20458;-73
2022/08/09 13:00:57;;;;;;;0.85;0.47;;;;;;;;;;5019897;28;20100;-72
2022/08/09 13:03:30;;;;;;;0.50;0.50;;;;;;;;;;5020874;28;20381;-72
2022/08/09 13:06:26;;;;;;;0.43;0.43;;;;;;;;;;5016721;28;20635;-72
2022/08/09 13:09:03;;;;;;;0.90;0.47;;;;;;;;;;5016202;28;20500;-73
2022/08/09 13:11:35;;;;;;;1.48;0.50;;;;;;;;;;5019182;28;20057;-72
2022/08/09 13:14:10;;;;;;;0.95;0.60;;;;;;;;;;5019841;28;20084;-76
2022/08/09 13:17:00;;;;;;;0.70;0.40;;;;;;;;;;5016836;28;20684;-73
2022/08/09 13:19:29;;;;;;;0.50;0.40;;;;;;;;;;5017049;28;20129;-74
2022/08/09 13:22:20;;;;;;;1.02;0.43;;;;;;;;;;5022802;28;20077;-72
2022/08/09 13:25:08;;;;;;;1.65;0.60;;;;;;;;;;5017686;28;20136;-72
2022/08/09 13:27:42;;;;;;;0.65;0.50;;;;;;;;;;5019680;28;20113;-72
2022/08/09 13:30:23;;;;;;;0.40;0.40;;;;;;;;;;5018378;28;20061;-73
2022/08/09 13:33:12;;;;;;;0.30;0.30;;;;;;;;;;5016646;28;20548;-72
2022/08/09 13:35:48;;;;;;;1.20;0.50;;;;;;;;;;5021694;28;20049;-73
2022/08/09 13:38:38;;;;;;;0.90;0.45;;;;;;;;;;5011800;28;20136;-74
2022/08/09 13:41:26;;;;;;;0.38;0.38;;;;;;;;;;5016033;28;20049;-72
2022/08/09 13:44:14;;;;;;;0.30;0.30;;;;;;;;;;5016586;28;20045;-72
2022/08/09 13:46:45;;;;;;;0.47;0.47;;;;;;;;;;5018544;28;20497;-71
2022/08/09 13:49:33;;;;;;;1.58;0.30;;;;;;;;;;5015874;28;20160;-71
2022/08/09 13:52:21;;;;;;;0.35;0.35;;;;;;;;;;5021816;28;20148;-72
2022/08/09 13:54:53;;;;;;;1.08;0.50;;;;;;;;;;5018713;28;20069;-72
2022/08/09 13:57:29;;;;;;;0.50;0.40;;;;;;;;;;5055394;28;20057;-72
2022/08/09 14:00:08;;;;;;;0.60;0.60;;;;;;;;;;5047072;28;20140;-72
2022/08/09 14:02:36;;;;;;;0.50;0.47;;;;;;;;;;5036789;28;20084;-72
2022/08/09 14:05:10;;;;;;;7.00;0.65;;;;;;;;;;5031823;28;20049;-72
2022/08/09 14:07:59;;;;;;;0.52;0.52;;;;;;;;;;5019712;28;20057;-72
2022/08/09 14:10:32;;;;;;;0.52;0.52;;;;;;;;;;5016600;28;20045;-73
2022/08/09 14:13:18;;;;;;;0.65;0.50;;;;;;;;;;5016017;28;20133;-72
2022/08/09 14:16:11;;;;;;;0.40;0.30;;;;;;;;;;5016649;28;20064;-72
2022/08/09 14:18:42;;;;;;;0.52;0.40;;;;;;;;;;5014872;28;20060;-73
2022/08/09 14:21:17;;;;;;;1.30;0.38;;;;;;;;;;5015987;28;20103;-72
2022/08/09 14:23:48;;;;;;;1.30;0.50;;;;;;;;;;5019616;28;20041;-72
2022/08/09 14:26:24;;;;;;;0.35;0.35;;;;;;;;;;5015358;28;20092;-72
2022/08/09 14:29:01;;;;;;;0.70;0.28;;;;;;;;;;5016252;28;20058;-73
2022/08/09 14:31:30;;;;;;;0.50;0.50;;;;;;;;;;5013828;28;20378;-71
2022/08/09 14:34:16;;;;;;;1.20;0.50;;;;;;;;;;5021521;28;20049;-71
2022/08/09 14:37:00;;;;;;;0.30;0.30;;;;;;;;;;5008967;28;20053;-72
2022/08/09 14:39:28;;;;;;;0.65;0.52;;;;;;;;;;5022937;28;20077;-72
2022/08/09 14:42:16;;;;;;;0.80;0.68;;;;;;;;;;5015532;28;20046;-72
2022/08/09 14:45:06;;;;;;;0.43;0.43;;;;;;;;;;5021974;28;20045;-73
2022/08/09 14:47:54;;;;;;;0.32;0.32;;;;;;;;;;5015678;28;20047;-71
2022/08/09 14:50:26;;;;;;;0.38;0.38;;;;;;;;;;5023790;28;20133;-73
2022/08/09 14:52:55;;;;;;;0.60;0.38;;;;;;;;;;5019254;28;20073;-71
2022/08/09 14:55:25;;;;;;;0.30;0.30;;;;;;;;;;5018431;28;20423;-73
2022/08/09 14:58:01;;;;;;;0.50;0.50;;;;;;;;;;5029723;28;20111;-72
2022/08/09 15:00:30;;;;;;;0.38;0.38;;;;;;;;;;5033343;28;20364;-72
2022/08/09 15:03:00;;;;;;;0.40;0.40;;;;;;;;;;5039555;28;20040;-75
2022/08/09 15:05:31;;;;;;;0.30;0.30;;;;;;;;;;5032174;28;20060;-73
2022/08/09 15:08:00;;;;;;;0.50;0.40;;;;;;;;;;5021195;28;20042;-71
2022/08/09 15:10:29;;;;;;;0.70;0.40;;;;;;;;;;5024877;28;20049;-71
2022/08/09 15:13:01;;;;;;;0.20;0.20;;;;;;;;;;5020257;28;20052;-73
2022/08/09 15:15:31;;;;;;;1.55;0.57;;;;;;;;;;5018098;28;20513;-72
2022/08/09 15:18:06;;;;;;;0.40;0.40;;;;;;;;;;5019051;28;20060;-71
2022/08/09 15:20:39;;;;;;;0.30;0.30;;;;;;;;;;5021760;28;20529;-71
2022/08/09 15:23:28;;;;;;;1.45;0.80;;;;;;;;;;5026375;28;20155;-72
2022/08/09 15:26:16;;;;;;;0.88;0.30;;;;;;;;;;5021749;28;20484;-72
2022/08/09 15:29:00;;;;;;;0.35;0.35;;;;;;;;;;5020912;28;20438;-73
2022/08/09 15:31:32;;;;;;;0.40;0.40;;;;;;;;;;5015727;28;20149;-72
2022/08/09 15:34:09;;;;;;;0.40;0.30;;;;;;;;;;5024072;28;20057;-71
2022/08/09 15:36:57;;;;;;;0.50;0.40;;;;;;;;;;5028506;28;20056;-71
2022/08/09 15:39:26;;;;;;;0.95;0.52;;;;;;;;;;5044650;28;20411;-71
2022/08/09 15:42:14;;;;;;;1.42;0.60;;;;;;;;;;5034480;28;20061;-72
2022/08/09 15:44:47;;;;;;;0.57;0.43;;;;;;;;;;5037759;28;20122;-71
2022/08/09 15:47:15;;;;;;;0.65;0.50;;;;;;;;;;5041898;28;20088;-71
2022/08/09 15:49:59;;;;;;;0.60;0.40;;;;;;;;;;5033729;28;20084;-72